createdAt,value
2017-05-10T00:00:37.444Z,74.6
2017-05-10T00:01:18.335Z,74.41
2017-05-10T00:01:59.242Z,75.07
2017-05-10T00:02:40.096Z,74.69
2017-05-10T00:03:20.975Z,74.69
2017-05-10T00:04:01.867Z,74.6
2017-05-10T00:04:42.745Z,74.79
2017-05-10T00:05:23.633Z,74.79
2017-05-10T00:06:04.507Z,74.41
2017-05-10T00:06:45.393Z,74.51
2017-05-10T00:07:26.297Z,74.51
2017-05-10T00:08:07.188Z,74.69
2017-05-10T00:08:48.104Z,74.6
2017-05-10T00:09:28.968Z,74.41
2017-05-10T00:10:09.854Z,75.07
2017-05-10T00:10:51.119Z,74.41
2017-05-10T00:11:32.019Z,75.26
2017-05-10T00:12:12.914Z,74.41
2017-05-10T00:12:53.812Z,74.51
2017-05-10T00:13:34.695Z,74.6
2017-05-10T00:14:15.588Z,74.51
2017-05-10T00:14:56.459Z,74.79
2017-05-10T00:15:37.340Z,74.6
2017-05-10T00:16:18.233Z,74.6
2017-05-10T00:16:59.119Z,74.51
2017-05-10T00:17:40.003Z,74.6
2017-05-10T00:18:20.881Z,75.17
2017-05-10T00:19:01.771Z,75.26
2017-05-10T00:19:42.652Z,74.69
2017-05-10T00:20:23.537Z,74.98
2017-05-10T00:21:04.416Z,74.79
2017-05-10T00:21:45.297Z,74.79
2017-05-10T00:22:26.181Z,75.07
2017-05-10T00:23:07.064Z,75.07
2017-05-10T00:23:47.955Z,74.88
2017-05-10T00:24:28.835Z,74.79
2017-05-10T00:25:09.719Z,74.79
2017-05-10T00:25:50.592Z,75.26
2017-05-10T00:26:31.477Z,75.17
2017-05-10T00:27:12.367Z,75.07
2017-05-10T00:27:53.252Z,75.55
2017-05-10T00:28:34.131Z,75.74
2017-05-10T00:29:15.012Z,75.74
2017-05-10T00:29:55.897Z,75.45
2017-05-10T00:30:36.800Z,75.64
2017-05-10T00:31:17.658Z,75.84
2017-05-10T00:31:58.572Z,75.74
2017-05-10T00:32:39.458Z,75.84
2017-05-10T00:33:20.336Z,75.74
2017-05-10T00:34:01.203Z,75.84
2017-05-10T00:34:42.119Z,75.26
2017-05-10T00:35:23.036Z,75.74
2017-05-10T00:36:03.925Z,75.74
2017-05-10T00:36:44.810Z,75.55
2017-05-10T00:37:25.684Z,75.74
2017-05-10T00:38:06.564Z,75.74
2017-05-10T00:38:47.479Z,75.64
2017-05-10T00:39:28.362Z,75.64
2017-05-10T00:40:09.240Z,75.64
2017-05-10T00:40:50.127Z,75.74
2017-05-10T00:41:31.097Z,75.74
2017-05-10T00:42:11.982Z,75.45
2017-05-10T00:42:52.857Z,75.64
2017-05-10T00:43:33.737Z,75.74
2017-05-10T00:44:14.626Z,75.74
2017-05-10T00:44:55.509Z,75.84
2017-05-10T00:45:36.388Z,75.64
2017-05-10T00:46:17.273Z,75.64
2017-05-10T00:46:58.160Z,75.64
2017-05-10T00:47:39.049Z,75.74
2017-05-10T00:48:19.922Z,75.93
2017-05-10T00:49:00.798Z,75.55
2017-05-10T00:49:41.687Z,76.31
2017-05-10T00:50:22.577Z,76.21
2017-05-10T00:51:03.461Z,76.12
2017-05-10T00:51:44.345Z,76.31
2017-05-10T00:52:25.231Z,76.69
2017-05-10T00:53:06.115Z,76.69
2017-05-10T00:53:46.997Z,76.59
2017-05-10T00:54:27.880Z,76.59
2017-05-10T00:55:08.766Z,76.5
2017-05-10T00:55:49.660Z,76.4
2017-05-10T00:56:30.561Z,76.59
2017-05-10T00:57:11.441Z,76.5
2017-05-10T00:57:52.324Z,76.5
2017-05-10T00:58:33.195Z,76.5
2017-05-10T00:59:14.086Z,76.59
2017-05-10T00:59:54.977Z,76.69
2017-05-10T01:00:35.858Z,76.69
2017-05-10T01:01:16.735Z,76.59
2017-05-10T01:01:57.610Z,76.21
2017-05-10T01:02:38.502Z,76.69
2017-05-10T01:03:19.412Z,76.12
2017-05-10T01:04:00.266Z,76.31
2017-05-10T01:04:41.131Z,75.74
2017-05-10T01:05:22.052Z,76.12
2017-05-10T01:06:02.898Z,76.12
2017-05-10T01:06:43.787Z,76.12
2017-05-10T01:07:24.663Z,75.84
2017-05-10T01:08:05.540Z,75.55
2017-05-10T01:08:46.408Z,75.64
2017-05-10T01:09:27.297Z,75.93
2017-05-10T01:10:08.186Z,75.64
2017-05-10T01:10:49.056Z,75.64
2017-05-10T01:11:29.934Z,76.03
2017-05-10T01:12:10.827Z,76.4
2017-05-10T01:12:51.720Z,75.93
2017-05-10T01:13:32.587Z,76.12
2017-05-10T01:14:13.452Z,76.78
2017-05-10T01:14:54.329Z,76.21
2017-05-10T01:15:35.205Z,76.12
2017-05-10T01:16:16.086Z,76.21
2017-05-10T01:16:56.984Z,76.03
2017-05-10T01:17:37.838Z,76.21
2017-05-10T01:18:18.723Z,75.84
2017-05-10T01:18:59.604Z,76.03
2017-05-10T01:19:40.490Z,75.64
2017-05-10T01:20:21.368Z,75.74
2017-05-10T01:21:02.235Z,75.74
2017-05-10T01:21:43.112Z,75.84
2017-05-10T01:22:23.999Z,76.21
2017-05-10T01:23:04.881Z,75.64
2017-05-10T01:23:45.760Z,75.84
2017-05-10T01:24:26.622Z,75.64
2017-05-10T01:25:07.500Z,75.45
2017-05-10T01:25:48.377Z,75.74
2017-05-10T01:26:29.289Z,75.55
2017-05-10T01:27:10.151Z,75.64
2017-05-10T01:27:51.031Z,75.84
2017-05-10T01:28:31.924Z,76.03
2017-05-10T01:29:12.808Z,76.5
2017-05-10T01:29:53.687Z,76.31
2017-05-10T01:30:34.564Z,76.5
2017-05-10T01:31:15.459Z,76.5
2017-05-10T01:31:56.353Z,76.88
2017-05-10T01:32:37.220Z,76.59
2017-05-10T01:33:18.088Z,76.21
2017-05-10T01:33:58.959Z,76.69
2017-05-10T01:34:39.838Z,76.5
2017-05-10T01:35:20.726Z,76.21
2017-05-10T01:36:01.605Z,76.12
2017-05-10T01:36:42.468Z,76.21
2017-05-10T01:37:23.339Z,76.31
2017-05-10T01:38:04.224Z,76.21
2017-05-10T01:38:45.139Z,76.21
2017-05-10T01:39:25.995Z,76.03
2017-05-10T01:40:06.919Z,75.74
2017-05-10T01:40:47.805Z,75.93
2017-05-10T01:41:28.685Z,75.55
2017-05-10T01:42:09.558Z,75.55
2017-05-10T01:42:50.447Z,75.74
2017-05-10T01:43:31.341Z,75.84
2017-05-10T01:44:12.224Z,75.45
2017-05-10T01:44:53.127Z,75.17
2017-05-10T01:45:34.010Z,74.79
2017-05-10T01:46:14.910Z,75.07
2017-05-10T01:46:55.792Z,74.88
2017-05-10T01:47:36.691Z,74.98
2017-05-10T01:48:17.576Z,75.07
2017-05-10T01:48:58.456Z,74.6
2017-05-10T01:49:39.347Z,74.79
2017-05-10T01:50:20.232Z,74.69
2017-05-10T01:51:01.132Z,74.79
2017-05-10T01:51:42.043Z,74.79
2017-05-10T01:52:22.927Z,74.79
2017-05-10T01:53:03.826Z,74.41
2017-05-10T01:53:44.720Z,74.79
2017-05-10T01:54:25.606Z,74.51
2017-05-10T01:55:06.501Z,75.26
2017-05-10T01:55:47.389Z,75.17
2017-05-10T01:56:28.269Z,74.98
2017-05-10T01:57:09.167Z,74.79
2017-05-10T01:57:50.052Z,74.51
2017-05-10T01:58:30.927Z,74.79
2017-05-10T01:59:11.799Z,74.69
2017-05-10T01:59:52.678Z,74.69
2017-05-10T02:00:33.563Z,75.26
2017-05-10T02:01:14.487Z,74.69
2017-05-10T02:01:55.361Z,75.07
2017-05-10T02:02:36.262Z,75.17
2017-05-10T02:03:17.149Z,75.07
2017-05-10T02:03:58.030Z,74.79
2017-05-10T02:04:38.901Z,74.79
2017-05-10T02:05:19.861Z,74.69
2017-05-10T02:06:00.733Z,74.51
2017-05-10T02:06:41.622Z,74.51
2017-05-10T02:07:22.494Z,74.51
2017-05-10T02:08:03.379Z,75.17
2017-05-10T02:08:44.270Z,74.51
2017-05-10T02:09:25.163Z,74.79
2017-05-10T02:10:06.037Z,74.41
2017-05-10T02:10:46.925Z,75.07
2017-05-10T02:11:27.833Z,74.51
2017-05-10T02:12:08.711Z,74.69
2017-05-10T02:12:49.589Z,74.69
2017-05-10T02:13:30.465Z,74.69
2017-05-10T02:14:11.356Z,74.69
2017-05-10T02:14:52.241Z,74.69
2017-05-10T02:15:33.129Z,74.69
2017-05-10T02:16:14.008Z,74.41
2017-05-10T02:16:54.896Z,74.6
2017-05-10T02:17:35.769Z,74.98
2017-05-10T02:18:16.676Z,74.98
2017-05-10T02:18:57.559Z,74.41
2017-05-10T02:19:38.444Z,74.31
2017-05-10T02:20:19.328Z,74.41
2017-05-10T02:21:00.223Z,74.51
2017-05-10T02:21:41.083Z,74.31
2017-05-10T02:22:21.974Z,74.69
2017-05-10T02:23:02.846Z,74.31
2017-05-10T02:23:43.743Z,74.79
2017-05-10T02:24:24.615Z,74.41
2017-05-10T02:25:05.506Z,74.41
2017-05-10T02:25:46.376Z,74.79
2017-05-10T02:26:27.260Z,74.41
2017-05-10T02:27:08.139Z,74.79
2017-05-10T02:27:49.026Z,75.07
2017-05-10T02:28:29.915Z,74.69
2017-05-10T02:29:10.845Z,74.51
2017-05-10T02:29:51.727Z,74.98
2017-05-10T02:30:32.606Z,74.88
2017-05-10T02:31:13.492Z,74.79
2017-05-10T02:31:54.379Z,75.45
2017-05-10T02:32:35.265Z,75.07
2017-05-10T02:33:16.146Z,75.74
2017-05-10T02:33:57.027Z,75.45
2017-05-10T02:34:37.924Z,74.88
2017-05-10T02:35:18.820Z,75.17
2017-05-10T02:35:59.709Z,75.17
2017-05-10T02:36:40.598Z,75.45
2017-05-10T02:37:21.475Z,75.17
2017-05-10T02:38:02.351Z,74.98
2017-05-10T02:38:43.228Z,74.79
2017-05-10T02:39:24.117Z,74.79
2017-05-10T02:40:05.002Z,74.51
2017-05-10T02:40:45.873Z,74.41
2017-05-10T02:41:26.761Z,74.22
2017-05-10T02:42:07.652Z,74.51
2017-05-10T02:42:48.534Z,74.6
2017-05-10T02:43:29.399Z,74.69
2017-05-10T02:44:10.281Z,74.79
2017-05-10T02:44:51.162Z,74.07
2017-05-10T02:45:32.045Z,73.88
2017-05-10T02:46:12.931Z,74.44
2017-05-10T02:46:53.799Z,74.41
2017-05-10T02:47:34.683Z,74.03
2017-05-10T02:48:15.575Z,74.07
2017-05-10T02:48:56.456Z,74.07
2017-05-10T02:49:37.342Z,74.22
2017-05-10T02:50:18.234Z,74.22
2017-05-10T02:50:59.125Z,74.22
2017-05-10T02:51:40.001Z,74.41
2017-05-10T02:52:20.869Z,74.79
2017-05-10T02:53:01.807Z,74.82
2017-05-10T02:53:42.681Z,74.51
2017-05-10T02:54:23.570Z,74.54
2017-05-10T02:55:04.465Z,74.6
2017-05-10T02:55:45.349Z,74.82
2017-05-10T02:56:26.245Z,74.51
2017-05-10T02:57:07.169Z,75.07
2017-05-10T02:57:48.046Z,75.17
2017-05-10T02:58:28.934Z,74.82
2017-05-10T02:59:09.809Z,74.82
2017-05-10T02:59:50.694Z,75.11
2017-05-10T03:00:31.573Z,75.11
2017-05-10T03:01:12.459Z,74.92
2017-05-10T03:01:53.351Z,74.63
2017-05-10T03:02:34.233Z,74.73
2017-05-10T03:03:15.118Z,74.73
2017-05-10T03:03:55.996Z,74.82
2017-05-10T03:04:36.882Z,74.44
2017-05-10T03:05:17.767Z,74.98
2017-05-10T03:05:58.650Z,75.45
2017-05-10T03:06:39.527Z,75.55
2017-05-10T03:07:20.415Z,75.68
2017-05-10T03:08:01.297Z,75.07
2017-05-10T03:08:42.274Z,75.93
2017-05-10T03:09:23.171Z,75.64
2017-05-10T03:10:04.068Z,76.31
2017-05-10T03:10:44.965Z,76.31
2017-05-10T03:11:25.852Z,76.12
2017-05-10T03:12:06.749Z,76.21
2017-05-10T03:12:47.609Z,76.4
2017-05-10T03:13:28.500Z,76.78
2017-05-10T03:14:09.390Z,76.4
2017-05-10T03:14:50.271Z,76.78
2017-05-10T03:15:31.148Z,76.5
2017-05-10T03:16:12.029Z,76.5
2017-05-10T03:16:52.911Z,76.31
2017-05-10T03:17:33.816Z,76.4
2017-05-10T03:18:14.681Z,76.5
2017-05-10T03:18:55.584Z,76.21
2017-05-10T03:19:36.473Z,76.5
2017-05-10T03:20:17.355Z,76.21
2017-05-10T03:20:58.237Z,76.21
2017-05-10T03:21:39.123Z,76.69
2017-05-10T03:22:20.000Z,76.59
2017-05-10T03:23:00.877Z,76.03
2017-05-10T03:23:41.750Z,76.12
2017-05-10T03:24:22.635Z,75.74
2017-05-10T03:25:03.530Z,75.55
2017-05-10T03:25:44.422Z,75.78
2017-05-10T03:26:25.286Z,75.17
2017-05-10T03:27:06.162Z,75.02
2017-05-10T03:27:47.050Z,75.21
2017-05-10T03:28:27.940Z,75.45
2017-05-10T03:29:08.827Z,75.96
2017-05-10T03:29:49.720Z,75.74
2017-05-10T03:30:30.618Z,75.36
2017-05-10T03:31:11.485Z,75.84
2017-05-10T03:31:52.389Z,75.74
2017-05-10T03:32:33.257Z,76.21
2017-05-10T03:33:14.145Z,76.59
2017-05-10T03:33:55.026Z,76.69
2017-05-10T03:34:35.910Z,76.69
2017-05-10T03:35:16.793Z,76.59
2017-05-10T03:35:57.680Z,76.54
2017-05-10T03:36:38.561Z,77.01
2017-05-10T03:37:19.441Z,76.78
2017-05-10T03:38:00.330Z,76.69
2017-05-10T03:38:41.330Z,76.25
2017-05-10T03:39:22.205Z,75.96
2017-05-10T03:40:03.075Z,76.16
2017-05-10T03:40:43.960Z,76.25
2017-05-10T03:41:24.849Z,76.78
2017-05-10T03:42:05.730Z,76.54
2017-05-10T03:42:46.599Z,76.25
2017-05-10T03:43:27.477Z,76.35
2017-05-10T03:44:08.353Z,76.63
2017-05-10T03:44:49.225Z,77.2
2017-05-10T03:45:30.102Z,76.35
2017-05-10T03:46:10.980Z,76.73
2017-05-10T03:46:51.866Z,76.73
2017-05-10T03:47:32.746Z,77.11
2017-05-10T03:48:13.632Z,77.49
2017-05-10T03:48:54.513Z,77.39
2017-05-10T03:49:35.400Z,77.11
2017-05-10T03:50:16.307Z,77.3
2017-05-10T03:50:57.186Z,77.87
2017-05-10T03:51:38.077Z,78.16
2017-05-10T03:52:18.966Z,78.06
2017-05-10T03:52:59.848Z,78.53
2017-05-10T03:53:40.723Z,78.53
2017-05-10T03:54:21.596Z,79.3
2017-05-10T03:55:02.502Z,78.82
2017-05-10T03:55:43.384Z,78.72
2017-05-10T03:56:24.271Z,78.91
2017-05-10T03:57:05.142Z,79.2
2017-05-10T03:57:46.027Z,79.11
2017-05-10T03:58:26.907Z,79.01
2017-05-10T03:59:07.795Z,79.58
2017-05-10T03:59:48.666Z,79.68
2017-05-10T04:00:29.551Z,79.49
2017-05-10T04:01:10.452Z,79.58
2017-05-10T04:01:51.296Z,79.49
2017-05-10T04:02:32.173Z,79.58
2017-05-10T04:03:13.053Z,79.68
2017-05-10T04:03:53.942Z,79.49
2017-05-10T04:04:34.833Z,79.49
2017-05-10T04:05:15.710Z,79.96
2017-05-10T04:05:56.597Z,79.86
2017-05-10T04:06:37.491Z,80.15
2017-05-10T04:07:18.387Z,80.53
2017-05-10T04:07:59.276Z,80.05
2017-05-10T04:08:40.157Z,79.39
2017-05-10T04:09:21.041Z,79.39
2017-05-10T04:10:01.912Z,79.49
2017-05-10T04:10:42.792Z,80.24
2017-05-10T04:11:23.669Z,81.01
2017-05-10T04:12:04.575Z,80.53
2017-05-10T04:12:45.454Z,80.63
2017-05-10T04:13:26.334Z,80.44
2017-05-10T04:14:07.230Z,80.82
2017-05-10T04:14:48.129Z,81.77
2017-05-10T04:15:29.018Z,80.91
2017-05-10T04:16:09.904Z,81.1
2017-05-10T04:16:50.787Z,81.1
2017-05-10T04:17:31.655Z,81.01
2017-05-10T04:18:12.533Z,80.44
2017-05-10T04:18:53.413Z,80.82
2017-05-10T04:19:34.302Z,81.29
2017-05-10T04:20:15.181Z,81.58
2017-05-10T04:20:56.059Z,81.58
2017-05-10T04:21:36.942Z,81.58
2017-05-10T04:22:17.835Z,82.24
2017-05-10T04:22:58.715Z,81.67
2017-05-10T04:23:39.615Z,81.67
2017-05-10T04:24:20.510Z,81.58
2017-05-10T04:25:01.396Z,81.96
2017-05-10T04:25:42.275Z,81.77
2017-05-10T04:26:23.159Z,81.67
2017-05-10T04:27:04.118Z,81.77
2017-05-10T04:27:44.969Z,81.77
2017-05-10T04:28:25.860Z,81.96
2017-05-10T04:29:06.741Z,82.43
2017-05-10T04:29:47.627Z,82.43
2017-05-10T04:30:28.549Z,82.34
2017-05-10T04:31:09.406Z,82.34
2017-05-10T04:31:50.290Z,82.91
2017-05-10T04:32:31.173Z,82.91
2017-05-10T04:33:12.066Z,83.19
2017-05-10T04:33:52.947Z,83.29
2017-05-10T04:34:33.829Z,83.29
2017-05-10T04:35:14.712Z,82.71
2017-05-10T04:35:55.593Z,83.39
2017-05-10T04:36:36.478Z,83.48
2017-05-10T04:37:17.363Z,83.58
2017-05-10T04:37:58.246Z,83.76
2017-05-10T04:38:39.132Z,83.67
2017-05-10T04:39:20.013Z,83.1
2017-05-10T04:40:00.891Z,82.91
2017-05-10T04:40:41.779Z,83.19
2017-05-10T04:41:22.684Z,83.58
2017-05-10T04:42:03.547Z,84.24
2017-05-10T04:42:44.421Z,84.14
2017-05-10T04:43:25.301Z,83.58
2017-05-10T04:44:06.206Z,83.19
2017-05-10T04:44:47.109Z,83.29
2017-05-10T04:45:27.951Z,83.76
2017-05-10T04:46:08.830Z,83.67
2017-05-10T04:46:49.743Z,83.62
2017-05-10T04:47:30.624Z,83.48
2017-05-10T04:48:11.502Z,83.58
2017-05-10T04:48:52.382Z,83.76
2017-05-10T04:49:33.267Z,84.14
2017-05-10T04:50:14.248Z,83.95
2017-05-10T04:50:55.067Z,83.48
2017-05-10T04:51:35.965Z,82.91
2017-05-10T04:52:16.833Z,82.91
2017-05-10T04:52:57.710Z,83.19
2017-05-10T04:53:38.570Z,83.48
2017-05-10T04:54:19.447Z,83.48
2017-05-10T04:55:00.335Z,83.67
2017-05-10T04:55:41.233Z,82.71
2017-05-10T04:56:22.095Z,83.29
2017-05-10T04:57:02.955Z,83.39
2017-05-10T04:57:43.894Z,82.91
2017-05-10T04:58:24.729Z,82.76
2017-05-10T04:59:05.602Z,83.23
2017-05-10T04:59:46.476Z,83.42
2017-05-10T05:00:27.348Z,83.33
2017-05-10T05:01:08.226Z,83.29
2017-05-10T05:01:49.117Z,83.9
2017-05-10T05:02:30.045Z,84.14
2017-05-10T05:03:10.902Z,83.95
2017-05-10T05:03:51.795Z,83.67
2017-05-10T05:04:32.675Z,83.67
2017-05-10T05:05:13.533Z,84.52
2017-05-10T05:05:54.403Z,84.91
2017-05-10T05:06:35.310Z,85
2017-05-10T05:07:16.181Z,85.57
2017-05-10T05:07:57.053Z,85.19
2017-05-10T05:08:37.936Z,85.28
2017-05-10T05:09:18.807Z,85.1
2017-05-10T05:09:59.687Z,85.57
2017-05-10T05:10:40.580Z,85.19
2017-05-10T05:11:21.470Z,85.57
2017-05-10T05:12:02.347Z,85.76
2017-05-10T05:12:43.219Z,86.05
2017-05-10T05:13:24.097Z,85.66
2017-05-10T05:14:05.010Z,85.66
2017-05-10T05:14:45.873Z,85.57
2017-05-10T05:15:26.811Z,85.28
2017-05-10T05:16:07.779Z,85.86
2017-05-10T05:16:48.650Z,85.57
2017-05-10T05:17:29.528Z,86.24
2017-05-10T05:18:10.400Z,85.76
2017-05-10T05:18:51.305Z,85.76
2017-05-10T05:19:32.180Z,86.24
2017-05-10T05:20:13.077Z,86.09
2017-05-10T05:20:53.988Z,86.28
2017-05-10T05:21:34.850Z,86.09
2017-05-10T05:22:15.712Z,86.71
2017-05-10T05:22:56.585Z,86.76
2017-05-10T05:23:37.478Z,86.28
2017-05-10T05:24:18.363Z,86.76
2017-05-10T05:24:59.236Z,86.94
2017-05-10T05:25:40.120Z,86.09
2017-05-10T05:26:20.988Z,85.99
2017-05-10T05:27:01.902Z,85.61
2017-05-10T05:27:42.774Z,86.71
2017-05-10T05:28:23.651Z,86.28
2017-05-10T05:29:04.560Z,86.28
2017-05-10T05:29:45.430Z,85.8
2017-05-10T05:30:26.314Z,85.42
2017-05-10T05:31:07.192Z,85.8
2017-05-10T05:31:48.088Z,85.8
2017-05-10T05:32:28.983Z,85.52
2017-05-10T05:33:09.829Z,85.9
2017-05-10T05:33:50.702Z,85.8
2017-05-10T05:34:31.598Z,85.24
2017-05-10T05:35:12.475Z,86.09
2017-05-10T05:35:53.367Z,86.47
2017-05-10T05:36:34.248Z,86.09
2017-05-10T05:37:15.266Z,85.61
2017-05-10T05:37:56.079Z,85.42
2017-05-10T05:38:36.922Z,84.89
2017-05-10T05:39:17.799Z,84.56
2017-05-10T05:39:58.677Z,84.38
2017-05-10T05:40:40.228Z,84.19
2017-05-10T05:41:21.117Z,84.28
2017-05-10T05:42:02.007Z,84.76
2017-05-10T05:42:42.873Z,85.24
2017-05-10T05:43:23.738Z,84.7
2017-05-10T05:44:04.629Z,84.52
2017-05-10T05:44:45.526Z,85.08
2017-05-10T05:45:26.398Z,85.08
2017-05-10T05:46:07.277Z,84.13
2017-05-10T05:46:48.153Z,84.42
2017-05-10T05:47:29.045Z,84.13
2017-05-10T05:49:23.059Z,84.42
2017-05-10T05:50:03.938Z,84.42
2017-05-10T05:50:44.830Z,85.18
2017-05-10T05:51:25.712Z,84.99
2017-05-10T05:52:06.591Z,85.18
2017-05-10T05:52:47.450Z,84.89
2017-05-10T05:53:28.333Z,83.94
2017-05-10T05:54:09.217Z,83.75
2017-05-10T05:54:50.107Z,84.13
2017-05-10T05:55:31.012Z,84.04
2017-05-10T05:56:11.895Z,83.75
2017-05-10T05:56:55.362Z,83.37
2017-05-10T05:57:36.282Z,83.56
2017-05-10T05:58:17.175Z,83.47
2017-05-10T05:58:58.062Z,82.84
2017-05-10T05:59:39.025Z,83.18
2017-05-10T06:00:19.990Z,83.32
2017-05-10T06:01:00.953Z,83.32
2017-05-10T06:02:54.781Z,80.75
2017-05-10T06:03:35.768Z,80.94
2017-05-10T06:04:16.682Z,81.79
2017-05-10T06:04:57.639Z,81.79
2017-05-10T06:05:38.534Z,83.03
2017-05-10T06:06:19.519Z,82.56
2017-05-10T06:08:20.460Z,80.94
2017-05-10T06:09:01.369Z,81.6
2017-05-10T06:09:42.434Z,81.6
2017-05-10T06:11:15.916Z,80.65
2017-05-10T06:11:56.807Z,80.75
2017-05-10T06:12:37.732Z,79.7
2017-05-10T06:13:18.619Z,79.46
2017-05-10T06:13:59.497Z,80.02
2017-05-10T06:14:40.397Z,80.02
2017-05-10T06:15:21.304Z,79.64
2017-05-10T06:16:02.253Z,79.36
2017-05-10T06:16:43.072Z,79.17
2017-05-10T06:17:23.966Z,78.31
2017-05-10T06:18:04.851Z,78.22
2017-05-10T06:18:45.745Z,78.03
2017-05-10T06:19:26.643Z,77.36
2017-05-10T06:20:07.732Z,77.83
2017-05-10T06:20:50.407Z,78.12
2017-05-10T06:21:31.313Z,78.16
2017-05-10T06:22:12.202Z,77.4
2017-05-10T06:22:53.079Z,77.01
2017-05-10T06:23:33.963Z,76.25
2017-05-10T06:24:14.955Z,76.35
2017-05-10T06:24:55.847Z,77.17
2017-05-10T06:25:36.740Z,77.83
2017-05-10T06:26:17.630Z,77.2
2017-05-10T06:26:58.534Z,76.82
2017-05-10T06:27:39.430Z,75.87
2017-05-10T06:29:33.065Z,75.11
2017-05-10T06:30:13.946Z,74.73
2017-05-10T06:30:54.827Z,74.92
2017-05-10T06:31:35.707Z,75.24
2017-05-10T06:32:16.577Z,74.67
2017-05-10T06:32:57.457Z,74.73
2017-05-10T06:33:38.344Z,75.49
2017-05-10T06:34:19.243Z,75.4
2017-05-10T06:35:00.102Z,74.92
2017-05-10T06:35:40.992Z,74.73
2017-05-10T06:36:21.880Z,74.73
2017-05-10T06:37:02.754Z,74.82
2017-05-10T06:37:43.639Z,74.57
2017-05-10T06:38:24.529Z,74.35
2017-05-10T06:39:05.427Z,74.19
2017-05-10T06:39:46.322Z,74.19
2017-05-10T06:40:27.188Z,73.81
2017-05-10T06:41:08.082Z,73.33
2017-05-10T06:41:48.975Z,72.86
2017-05-10T06:42:29.865Z,73.62
2017-05-10T06:43:10.743Z,72.86
2017-05-10T06:43:51.628Z,72.57
2017-05-10T06:44:32.520Z,71.81
2017-05-10T06:45:13.403Z,71.91
2017-05-10T06:45:54.287Z,72
2017-05-10T06:46:35.187Z,71.72
2017-05-10T06:47:16.067Z,70.95
2017-05-10T06:47:57.005Z,70.47
2017-05-10T06:48:37.876Z,70.03
2017-05-10T06:49:18.779Z,70.03
2017-05-10T06:49:59.690Z,68.88
2017-05-10T06:50:40.563Z,68.41
2017-05-10T06:51:21.445Z,68.22
2017-05-10T06:52:02.369Z,68.44
2017-05-10T06:52:43.161Z,68.35
2017-05-10T06:53:24.046Z,67.3
2017-05-10T06:54:05.038Z,67.21
2017-05-10T06:54:45.910Z,68.06
2017-05-10T06:55:26.870Z,68.16
2017-05-10T06:56:07.759Z,68.22
2017-05-10T06:56:48.676Z,67.36
2017-05-10T06:57:29.545Z,66.88
2017-05-10T06:58:10.431Z,67.07
2017-05-10T06:58:51.321Z,67.74
2017-05-10T06:59:32.204Z,67.83
2017-05-10T07:00:13.090Z,66.98
2017-05-10T07:00:53.963Z,67.74
2017-05-10T07:01:34.858Z,66.98
2017-05-10T07:02:15.737Z,67.93
2017-05-10T07:02:56.615Z,68.12
2017-05-10T07:03:37.502Z,67.99
2017-05-10T07:04:18.401Z,68.12
2017-05-10T07:04:59.282Z,66.98
2017-05-10T07:05:40.159Z,66.53
2017-05-10T07:06:21.044Z,65.93
2017-05-10T07:07:01.918Z,65.93
2017-05-10T07:07:42.798Z,66.02
2017-05-10T07:08:23.678Z,65.93
2017-05-10T07:09:04.566Z,65.93
2017-05-10T07:09:45.449Z,65.55
2017-05-10T07:10:26.366Z,65.83
2017-05-10T07:11:07.256Z,65.55
2017-05-10T07:11:48.147Z,65.83
2017-05-10T07:12:29.026Z,66.02
2017-05-10T07:13:09.919Z,65.93
2017-05-10T07:13:50.808Z,65.55
2017-05-10T07:14:31.690Z,66.22
2017-05-10T07:15:12.574Z,65.74
2017-05-10T07:15:53.461Z,65.64
2017-05-10T07:16:34.354Z,66.09
2017-05-10T07:17:15.234Z,65.61
2017-05-10T07:17:56.114Z,66.47
2017-05-10T07:18:37.016Z,66.28
2017-05-10T07:19:17.897Z,66.22
2017-05-10T07:19:58.787Z,66.22
2017-05-10T07:20:39.666Z,65.55
2017-05-10T07:21:20.546Z,65.74
2017-05-10T07:22:01.437Z,65.83
2017-05-10T07:22:42.299Z,66.5
2017-05-10T07:23:23.182Z,66.09
2017-05-10T07:24:04.077Z,66.56
2017-05-10T07:24:44.960Z,67.42
2017-05-10T07:25:25.844Z,67.61
2017-05-10T07:26:06.735Z,67.52
2017-05-10T07:26:47.613Z,67.52
2017-05-10T07:27:28.499Z,67.8
2017-05-10T07:28:09.391Z,67.8
2017-05-10T07:28:50.289Z,67.99
2017-05-10T07:29:31.177Z,68.53
2017-05-10T07:30:12.091Z,68.44
2017-05-10T07:30:52.980Z,68.38
2017-05-10T07:31:33.851Z,69.14
2017-05-10T07:32:14.737Z,69.14
2017-05-10T07:32:55.635Z,68.82
2017-05-10T07:33:36.530Z,69.23
2017-05-10T07:34:17.421Z,69.62
2017-05-10T07:34:58.302Z,69.62
2017-05-10T07:35:39.193Z,69.58
2017-05-10T07:36:20.063Z,69.2
2017-05-10T07:37:00.959Z,69.87
2017-05-10T07:37:41.851Z,69.96
2017-05-10T07:38:22.730Z,69.96
2017-05-10T07:39:03.679Z,69.87
2017-05-10T07:39:44.522Z,69.96
2017-05-10T07:40:25.404Z,69.68
2017-05-10T07:41:06.286Z,69.14
2017-05-10T07:41:47.177Z,69.14
2017-05-10T07:42:28.077Z,67.99
2017-05-10T07:43:08.956Z,67.77
2017-05-10T07:43:49.847Z,68.53
2017-05-10T07:44:30.748Z,68.91
2017-05-10T07:45:11.635Z,69.2
2017-05-10T07:45:52.550Z,68.91
2017-05-10T07:46:33.437Z,68.47
2017-05-10T07:47:14.322Z,68.47
2017-05-10T07:47:55.229Z,68.47
2017-05-10T07:48:36.111Z,68.12
2017-05-10T07:49:16.991Z,67.33
2017-05-10T07:49:57.896Z,66.6
2017-05-10T07:50:38.789Z,65.64
2017-05-10T07:51:19.656Z,65.3
2017-05-10T07:52:00.548Z,63.92
2017-05-10T07:52:41.431Z,64.02
2017-05-10T07:53:22.319Z,63.73
2017-05-10T07:54:03.235Z,63.54
2017-05-10T07:54:44.138Z,63.54
2017-05-10T07:55:25.014Z,63
2017-05-10T07:56:05.899Z,62.43
2017-05-10T07:56:46.822Z,62.05
2017-05-10T07:57:27.689Z,61.13
2017-05-10T07:58:08.585Z,60.74
2017-05-10T07:58:49.475Z,59.5
2017-05-10T07:59:30.364Z,59.22
2017-05-10T08:00:11.261Z,59.22
2017-05-10T08:00:52.162Z,59.31
2017-05-10T08:01:33.047Z,59.66
2017-05-10T08:02:13.949Z,60.61
2017-05-10T08:02:54.842Z,60.68
2017-05-10T08:03:35.726Z,61.73
2017-05-10T08:04:16.665Z,61.83
2017-05-10T08:04:57.557Z,61.54
2017-05-10T08:05:38.454Z,61.73
2017-05-10T08:06:19.341Z,62.52
2017-05-10T08:07:00.213Z,62.05
2017-05-10T08:07:41.100Z,61.76
2017-05-10T08:08:21.987Z,61.19
2017-05-10T08:09:02.865Z,61.47
2017-05-10T08:09:43.755Z,61.29
2017-05-10T08:10:24.658Z,61.19
2017-05-10T08:11:05.541Z,61.86
2017-05-10T08:11:46.428Z,61.47
2017-05-10T08:12:27.330Z,61.47
2017-05-10T08:13:08.216Z,61.92
2017-05-10T08:13:49.097Z,62.11
2017-05-10T08:14:29.985Z,61.83
2017-05-10T08:15:10.880Z,61.92
2017-05-10T08:15:51.763Z,61.73
2017-05-10T08:16:32.657Z,62.3
2017-05-10T08:17:13.542Z,62.3
2017-05-10T08:17:54.427Z,62.21
2017-05-10T08:18:35.311Z,62.46
2017-05-10T08:19:16.215Z,63.04
2017-05-10T08:19:57.108Z,63.42
2017-05-10T08:20:37.985Z,63.7
2017-05-10T08:21:18.873Z,63.51
2017-05-10T08:21:59.771Z,63.23
2017-05-10T08:22:40.656Z,63.23
2017-05-10T08:23:21.520Z,63.51
2017-05-10T08:24:02.419Z,63.51
2017-05-10T08:24:43.311Z,63.99
2017-05-10T08:25:24.197Z,64.09
2017-05-10T08:26:05.088Z,63.96
2017-05-10T08:26:45.977Z,64.75
2017-05-10T08:27:26.854Z,63.86
2017-05-10T08:28:07.749Z,63.32
2017-05-10T08:28:48.632Z,64.37
2017-05-10T08:29:29.510Z,64.15
2017-05-10T08:30:10.416Z,64.37
2017-05-10T08:30:51.314Z,64.62
2017-05-10T08:31:32.200Z,63.96
2017-05-10T08:32:13.084Z,63.96
2017-05-10T08:32:53.956Z,64.34
2017-05-10T08:33:34.848Z,63.86
2017-05-10T08:34:15.725Z,63.96
2017-05-10T08:34:56.617Z,64.91
2017-05-10T08:35:37.502Z,64.78
2017-05-10T08:36:18.395Z,65.36
2017-05-10T08:36:59.267Z,65.55
2017-05-10T08:37:40.194Z,65.83
2017-05-10T08:38:21.083Z,65.92
2017-05-10T08:40:35.686Z,66.97
2017-05-10T08:41:16.574Z,66.59
2017-05-10T08:41:57.461Z,66.31
2017-05-10T08:42:38.337Z,66.24
2017-05-10T08:43:19.220Z,66.21
2017-05-10T08:44:00.113Z,66.59
2017-05-10T08:44:40.989Z,66.5
2017-05-10T08:45:21.863Z,66.02
2017-05-10T08:46:02.731Z,66.21
2017-05-10T08:46:43.614Z,66.53
2017-05-10T08:47:24.494Z,66.05
2017-05-10T08:48:05.391Z,66.05
2017-05-10T08:48:46.254Z,65.77
2017-05-10T08:49:27.126Z,65.58
2017-05-10T08:50:08.036Z,66.34
2017-05-10T08:50:48.907Z,65.83
2017-05-10T08:51:29.770Z,65.73
2017-05-10T08:52:10.645Z,65.96
2017-05-10T08:52:51.493Z,65.86
2017-05-10T08:53:32.383Z,65.67
2017-05-10T08:54:13.279Z,65.67
2017-05-10T08:54:54.175Z,65.48
2017-05-10T08:55:35.109Z,65.48